Latest Weather Observations for Bendigo

IDV60801

Issued at 12:31 pm EST Tuesday 21 April 2015 (issued every 30 minutes, with the page automatically refreshed every 10 minutes)

About weather observations | Map of weather stations | Latest weather observations for VIC | Other Formats
Station Details ID: 081123 Name: BENDIGO AIRPORT Lat: -36.74 Lon: 144.33 Height: 208.0 m
Data from the previous 72 hours. | See also: Recent months at Bendigo
Date/Time
EST
Temp
°C
App
Temp
°C
Dew
Point
Rel
Hum
%
Delta-T
°C
Wind Press
QNH
hPa
Press
MSL
hPa
Rain
since 9 am
mm
Dir
 
Spd
km/h
Gust
km/h
Spd
kts
Gust
kts
21/12:30pm 17.3 10.4 4.6 43 6.0 SSE 30 41 16 22 1028.7 1028.6 0.0
21/12:00pm 17.0 12.1 5.0 45 5.7 SSE 20 33 11 18 1029.1 1029.0 0.0
21/11:37am 16.4 9.9 4.8 46 5.5 SSE 28 46 15 25 1029.3 1029.2 0.0
21/11:30am 16.7 9.4 4.7 45 5.7 SSE 32 44 17 24 1029.4 1029.3 0.0
21/11:00am 15.4 7.6 4.8 49 5.0 SSE 35 46 19 25 1029.8 1029.7 0.0
21/10:30am 15.0 7.9 5.5 53 4.6 SE 32 50 17 27 1030.0 1029.9 0.0
21/10:00am 14.3 7.3 5.9 57 4.0 SE 32 50 17 27 1030.1 1030.0 0.0
21/09:57am 14.4 7.7 5.7 56 4.1 SSE 30 50 16 27 1030.1 1030.0 0.0
21/09:30am 13.7 8.4 7.0 64 3.3 SSE 24 43 13 23 1030.7 1030.6 0.0
21/09:00am 12.9 8.3 6.7 66 3.0 SE 20 37 11 20 1031.2 1031.1 0.0
21/08:30am 11.9 7.9 6.8 71 2.5 SE 17 24 9 13 1031.3 1031.2 0.0
21/08:00am 9.8 6.8 6.2 78 1.7 SSE 11 17 6 9 1031.1 1031.0 0.0
21/07:30am 7.7 5.8 4.7 81 1.3 SSW 4 9 2 5 1031.1 1031.0 0.0
21/07:00am 5.1 1.2 3.4 89 0.7 SW 13 17 7 9 1030.9 1030.8 0.0
21/06:30am 6.6 4.7 5.1 90 0.7 WSW 4 11 2 6 1031.0 1030.9 0.0
21/06:00am 6.2 3.6 3.4 82 1.2 WSW 6 7 3 4 1030.8 1030.7 0.0
21/05:30am 7.8 4.4 4.0 77 1.7 S 11 20 6 11 1030.6 1030.5 0.0
21/05:00am 7.8 5.1 3.5 74 1.8 S 7 15 4 8 1030.5 1030.4 0.0
21/04:30am 8.5 4.3 3.8 72 2.1 SSE 15 22 8 12 1030.5 1030.4 0.0
21/04:00am 8.6 4.0 3.8 72 2.1 SSE 17 26 9 14 1030.6 1030.5 0.0
21/03:30am 8.2 4.3 3.5 72 2.0 SE 13 20 7 11 1030.8 1030.7 0.0
21/03:00am 8.4 3.8 3.7 72 2.0 SE 17 26 9 14 1031.1 1031.0 0.0
21/02:30am 8.6 3.6 3.6 71 2.2 SE 19 26 10 14 1031.6 1031.5 0.0
21/02:00am 8.9 3.9 3.7 70 2.3 SSE 19 28 10 15 1031.6 1031.5 0.0
21/01:30am 9.0 4.0 3.8 70 2.3 SE 19 28 10 15 1032.0 1031.8 0.0
21/01:00am 8.8 2.5 3.8 71 2.2 SSE 26 37 14 20 1031.8 1031.7 0.0
21/12:30am 8.5 3.6 3.9 73 2.0 SSE 19 28 10 15 1032.2 1032.0 0.0
21/12:00am 8.4 2.9 3.8 73 2.0 SSE 22 30 12 16 1032.6 1032.5 0.0
 
Date/Time
EST
Temp
°C
App
Temp
°C
Dew
Point
Rel
Hum
%
Delta-T
°C
Wind Press
QNH
hPa
Press
MSL
hPa
Rain
since 9 am
mm
Dir
 
Spd
km/h
Gust
km/h
Spd
kts
Gust
kts
20/11:30pm 8.5 4.7 3.8 72 2.0 SSE 13 26 7 14 1032.8 1032.7 0.0
20/11:00pm 8.6 3.6 3.6 71 2.2 SSE 19 26 10 14 1033.0 1032.9 0.0
20/10:30pm 8.9 5.8 3.7 70 2.3 SSE 9 15 5 8 1033.5 1033.4 0.0
20/10:00pm 9.6 3.7 3.8 67 2.5 SSE 24 35 13 19 1033.4 1033.3 0.0
20/09:30pm 9.7 4.8 3.9 67 2.6 SSE 19 30 10 16 1033.5 1033.4 0.0
20/09:00pm 9.8 3.5 3.8 66 2.6 S 26 33 14 18 1033.2 1033.1 0.0
20/08:30pm 10.3 4.8 3.8 64 2.9 SSE 22 33 12 18 1033.2 1033.1 0.0
20/08:00pm 10.3 5.0 3.1 61 3.1 S 20 30 11 16 1033.2 1033.1 0.0
20/07:30pm 10.8 5.4 2.6 57 3.6 S 20 30 11 16 1033.0 1032.9 0.0
20/07:00pm 11.1 4.6 2.4 55 3.7 S 26 35 14 19 1032.6 1032.5 0.0
20/06:30pm 11.6 5.5 2.6 54 3.9 S 24 33 13 18 1032.6 1032.5 0.0
20/06:00pm 12.2 5.0 2.9 53 4.1 SSE 30 44 16 24 1032.4 1032.2 0.0
20/05:30pm 12.9 6.1 3.0 51 4.4 SSE 28 41 15 22 1032.3 1032.1 0.0
20/05:01pm 13.7 6.5 2.9 48 4.9 SSE 30 48 16 26 1032.3 1032.1 0.0
20/05:00pm 13.7 6.1 2.9 48 4.8 SSE 32 48 17 26 1032.2 1032.0 0.0
20/04:30pm 14.3 7.5 2.9 46 5.2 SSE 28 48 15 26 1032.0 1031.8 0.0
20/04:27pm 14.3 7.1 2.9 46 5.2 SSE 30 48 16 26 1032.0 1031.8 0.0
20/04:00pm 15.0 7.3 2.5 43 5.6 SSE 32 46 17 25 1031.7 1031.6 0.0
20/03:30pm 15.3 7.6 2.5 42 5.8 SSE 32 54 17 29 1032.0 1031.8 0.0
20/03:00pm 16.0 8.7 2.4 40 6.1 SSE 30 54 16 29 1031.8 1031.7 0.0
20/02:39pm 15.7 8.4 2.2 40 6.1 SSE 30 48 16 26 1031.8 1031.7 0.0
20/02:30pm 16.0 9.4 2.1 39 6.3 S 26 41 14 22 1032.0 1031.8 0.0
20/02:00pm 16.5 10.2 1.8 37 6.6 SSE 24 41 13 22 1032.0 1031.8 0.0
20/01:41pm 15.4 8.3 1.5 39 6.2 SSE 28 46 15 25 1032.3 1032.1 0.0
20/01:30pm 15.3 7.9 1.8 40 6.0 SSE 30 39 16 21 1032.3 1032.1 0.0
20/01:01pm 15.6 8.6 2.1 40 6.1 SSE 28 46 15 25 1032.4 1032.2 0.0
20/01:00pm 15.5 8.2 2.3 41 5.9 SSE 30 46 16 25 1032.5 1032.4 0.0
20/12:30pm 14.7 7.4 2.6 44 5.5 SE 30 50 16 27 1032.8 1032.7 0.0
20/12:00pm 14.7 7.0 3.2 46 5.2 SSE 33 52 18 28 1033.1 1033.0 0.0
20/11:30am 13.8 5.7 3.3 49 4.8 SSE 35 56 19 30 1033.6 1033.5 0.0
20/11:02am 13.3 4.0 2.8 49 4.7 S 41 63 22 34 1033.8 1033.7 0.0
20/11:00am 13.6 4.7 3.1 49 4.7 SSE 39 54 21 29 1033.9 1033.8 0.0
20/10:32am 13.3 5.3 3.7 52 4.4 SSE 35 54 19 29 1034.4 1034.3 0.0
20/10:30am 13.2 4.8 3.6 52 4.4 SSE 37 54 20 29 1034.4 1034.3 0.0
20/10:02am 12.8 6.2 4.0 55 4.0 SE 28 46 15 25 1034.7 1034.6 0.0
20/10:00am 12.8 5.7 3.7 54 4.1 SE 30 46 16 25 1034.7 1034.6 0.0
20/09:30am 11.9 4.8 3.7 57 3.7 SSE 30 41 16 22 1034.8 1034.7 0.0
20/09:00am 11.1 6.2 3.9 61 3.2 SSE 19 39 10 21 1035.0 1034.9 0.0
20/08:30am 10.1 5.0 4.0 66 2.7 SSE 20 33 11 18 1034.9 1034.8 0.0
20/08:00am 9.0 5.2 4.0 71 2.2 S 13 20 7 11 1035.0 1034.9 0.0
20/07:30am 7.9 4.1 3.9 76 1.7 S 13 19 7 10 1034.9 1034.8 0.0
20/07:00am 7.1 2.8 3.5 78 1.5 S 15 19 8 10 1034.7 1034.6 0.0
20/06:30am 5.9 1.8 2.5 79 1.4 SSW 13 20 7 11 1034.5 1034.4 0.0
20/06:00am 6.8 3.6 3.2 78 1.5 SSW 9 17 5 9 1034.1 1034.0 0.0
20/05:30am 7.4 4.3 3.5 76 1.7 S 9 15 5 8 1034.0 1033.9 0.0
20/05:00am 7.5 3.2 3.4 75 1.7 SSW 15 24 8 13 1033.8 1033.7 0.0
20/04:30am 7.4 4.2 2.9 73 1.9 S 9 17 5 9 1033.7 1033.6 0.0
20/04:00am 7.6 2.9 3.1 73 1.9 S 17 24 9 13 1033.4 1033.3 0.0
20/03:30am 7.3 2.0 2.8 73 1.9 S 20 24 11 13 1033.3 1033.2 0.0
20/03:00am 7.6 2.9 2.9 72 2.0 S 17 24 9 13 1033.4 1033.3 0.0
20/02:30am 7.0 3.7 2.5 73 1.9 S 9 17 5 9 1033.7 1033.6 0.0
20/02:00am 5.9 3.0 2.5 79 1.4 S 7 13 4 7 1033.7 1033.6 0.0
20/01:30am 4.6 1.5 1.6 81 1.2 WSW 7 9 4 5 1033.7 1033.6 0.0
20/01:00am 6.2 3.3 2.5 77 1.5 W 7 9 4 5 1033.8 1033.7 0.0
20/12:30am 7.1 4.1 2.0 70 2.1 SW 7 11 4 6 1034.0 1033.9 0.0
20/12:00am 7.8 3.3 1.9 66 2.4 SSW 15 22 8 12 1034.0 1033.9 0.0
 
Date/Time
EST
Temp
°C
App
Temp
°C
Dew
Point
Rel
Hum
%
Delta-T
°C
Wind Press
QNH
hPa
Press
MSL
hPa
Rain
since 9 am
mm
Dir
 
Spd
km/h
Gust
km/h
Spd
kts
Gust
kts
19/11:30pm 8.0 2.7 1.8 65 2.6 S 19 30 10 16 1033.8 1033.7 0.0
19/11:00pm 8.0 3.4 1.6 64 2.6 S 15 22 8 12 1034.0 1033.9 0.0
19/10:30pm 7.8 4.1 2.1 67 2.4 SSW 11 17 6 9 1033.9 1033.8 0.0
19/10:00pm 7.8 4.6 3.1 72 2.0 SSW 9 15 5 8 1033.9 1033.8 0.0
19/09:30pm 8.0 4.1 3.3 72 2.0 S 13 19 7 10 1033.6 1033.5 0.0
19/09:00pm 8.5 4.6 3.4 70 2.2 S 13 24 7 13 1033.2 1033.1 0.0
19/08:30pm 8.9 3.8 3.3 68 2.4 S 19 26 10 14 1032.9 1032.8 0.0
19/08:00pm 8.9 4.2 3.1 67 2.5 S 17 32 9 17 1032.5 1032.4 0.0
19/07:30pm 9.1 5.1 2.9 65 2.7 SSW 13 22 7 12 1032.3 1032.1 0.0
19/07:00pm 9.4 5.4 2.9 64 2.8 S 13 20 7 11 1032.0 1031.8 0.0
19/06:30pm 9.6 4.9 3.1 64 2.8 S 17 24 9 13 1031.4 1031.3 0.0
19/06:00pm 10.8 5.7 4.0 63 3.0 SSE 20 32 11 17 1031.0 1030.9 0.0
19/05:30pm 11.8 6.5 2.8 54 4.0 S 20 32 11 17 1030.3 1030.2 0.0
19/05:00pm 12.5 7.0 2.1 49 4.5 S 20 33 11 18 1029.7 1029.6 0.0
19/04:30pm 12.2 6.8 2.6 52 4.2 S 20 30 11 16 1029.5 1029.4 0.0
19/04:00pm 12.0 3.7 1.9 50 4.3 SSE 35 54 19 29 1029.3 1029.2 0.0
19/03:55pm 13.2 6.3 2.4 48 4.8 S 28 54 15 29 1029.1 1029.0 0.0
19/03:30pm 12.4 6.9 4.1 57 3.8 SSE 22 32 12 17 1028.8 1028.7 0.0
19/03:12pm 13.4 6.6 2.9 49 4.7 S 28 46 15 25 1028.5 1028.4 0.0
19/03:00pm 14.2 8.3 1.8 43 5.4 SSW 22 43 12 23 1028.3 1028.2 0.0
19/02:30pm 13.3 7.9 4.5 55 4.1 SSW 22 33 12 18 1028.3 1028.2 0.0
19/02:00pm 13.5 6.4 3.3 50 4.6 SSW 30 46 16 25 1028.0 1027.8 0.0
19/01:47pm 13.0 6.1 2.8 50 4.5 S 28 46 15 25 1027.8 1027.6 0.0
19/01:30pm 14.0 8.0 1.3 42 5.5 S 22 32 12 17 1027.6 1027.4 0.0
19/01:00pm 13.9 8.6 2.8 47 5.0 S 20 35 11 19 1027.7 1027.5 0.0
19/12:30pm 12.6 6.6 3.3 53 4.2 S 24 46 13 25 1028.0 1027.8 0.0
19/12:16pm 12.4 5.3 3.4 54 4.0 S 30 50 16 27 1027.7 1027.5 0.0
19/12:00pm 13.2 7.0 2.1 47 4.8 S 24 37 13 20 1027.6 1027.4 0.0
19/11:30am 13.5 6.9 1.8 45 5.1 S 26 44 14 24 1027.4 1027.2 0.0
19/11:09am 13.2 6.1 1.5 45 5.1 S 28 46 15 25 1027.4 1027.2 0.0
19/11:00am 13.0 6.8 2.3 48 4.7 SSW 24 39 13 21 1027.4 1027.2 0.0
19/10:37am 12.8 5.9 2.6 50 4.5 SSW 28 50 15 27 1027.1 1026.9 0.0
19/10:30am 13.1 7.1 3.5 52 4.4 SSW 24 35 13 19 1027.0 1026.8 0.0
19/10:12am 12.7 6.1 4.2 56 3.9 S 28 59 15 32 1026.8 1026.7 0.0
19/10:00am 11.9 5.3 4.2 59 3.5 S 28 41 15 22 1026.7 1026.6 0.0
19/09:30am 11.3 4.8 4.5 63 3.1 S 28 43 15 23 1026.4 1026.3 0.0
19/09:00am 10.6 5.2 4.3 65 2.8 SSW 22 37 12 20 1025.9 1025.8 0.4
19/08:30am 9.6 4.6 4.8 72 2.2 SW 20 32 11 17 1025.2 1025.1 0.4
19/08:00am 8.5 4.6 5.4 81 1.4 SSW 15 20 8 11 1024.8 1024.7 0.4
19/07:30am 7.3 5.5 5.3 87 0.9 S 4 9 2 5 1024.2 1024.1 0.4
19/07:00am 6.8 4.5 4.8 87 0.9 S 6 11 3 6 1023.5 1023.3 0.4
19/06:30am 7.2 4.3 4.9 85 1.0 SSW 9 17 5 9 1022.8 1022.6 0.4
19/06:00am 7.5 4.2 4.8 83 1.2 SSW 11 15 6 8 1022.5 1022.3 0.4
19/05:30am 7.9 5.1 5.2 83 1.2 SSW 9 15 5 8 1022.1 1021.9 0.4
19/05:00am 8.0 5.2 5.3 83 1.2 S 9 15 5 8 1021.7 1021.6 0.4
19/04:30am 8.2 4.7 5.5 83 1.2 SW 13 19 7 10 1020.9 1020.8 0.4
19/04:00am 8.4 4.3 6.0 85 1.1 SW 17 24 9 13 1020.7 1020.6 0.4
19/03:30am 8.7 4.6 6.3 85 1.1 WSW 17 22 9 12 1020.4 1020.3 0.4
19/03:00am 8.9 4.5 6.5 85 1.1 WSW 19 24 10 13 1020.1 1020.0 0.4
19/02:30am 9.2 4.8 6.6 84 1.2 SW 19 28 10 15 1020.0 1019.8 0.4
19/02:00am 9.6 5.3 7.0 84 1.2 SW 19 28 10 15 1019.7 1019.5 0.4
19/01:30am 9.7 5.8 7.0 83 1.3 SW 17 22 9 12 1019.6 1019.4 0.4
19/01:00am 10.3 6.1 7.5 83 1.4 SW 19 26 10 14 1019.2 1019.0 0.4
19/12:30am 10.9 7.2 8.0 82 1.4 SW 17 28 9 15 1018.9 1018.7 0.4
19/12:00am 11.1 8.2 8.0 81 1.5 SSW 13 26 7 14 1018.4 1018.2 0.2
 
Date/Time
EST
Temp
°C
App
Temp
°C
Dew
Point
Rel
Hum
%
Delta-T
°C
Wind Press
QNH
hPa
Press
MSL
hPa
Rain
since 9 am
mm
Dir
 
Spd
km/h
Gust
km/h
Spd
kts
Gust
kts
18/11:30pm 11.1 7.4 7.8 80 1.6 SW 17 26 9 14 1018.3 1018.1 0.2
18/11:00pm 11.2 7.5 8.1 81 1.5 SSW 17 26 9 14 1017.8 1017.6 0.2
18/10:30pm 11.4 7.9 8.8 84 1.3 SSW 17 26 9 14 1017.7 1017.5 0.2
18/10:00pm 11.6 8.9 8.8 83 1.4 SSW 13 17 7 9 1017.1 1016.9 0.2
18/09:30pm 11.6 7.2 8.8 83 1.4 SSW 22 35 12 19 1017.0 1016.8 0.2
18/09:00pm 11.1 6.4 9.4 89 0.9 SW 24 39 13 21 1016.6 1016.5 0.2
18/08:53pm 11.3 5.9 9.4 88 1.0 SW 28 48 15 26 1016.4 1016.3 0.2
18/08:46pm 11.4 6.0 9.5 88 1.0 SW 28 48 15 26 1016.2 1016.1 0.2
18/08:42pm 12.0 7.7 10.6 91 0.7 SW 24 39 13 21 1016.1 1016.0 0.2
18/08:30pm 12.6 8.2 10.5 87 1.1 SW 24 39 13 21 1015.8 1015.6 0.2
18/08:00pm 13.7 9.5 11.2 85 1.3 SW 24 37 13 20 1015.0 1014.8 0.2
18/07:43pm 16.2 13.0 11.2 72 2.7 W 19 41 10 22 1014.5 1014.3 0.0
18/07:30pm 16.4 15.4 10.3 67 3.3 NNW 6 17 3 9 1014.1 1013.9 0.0
18/07:00pm 16.2 16.0 10.5 69 3.1 N 2 6 1 3 1013.7 1013.5 0.0
18/06:30pm 16.6 15.4 9.5 63 3.7 NW 6 9 3 5 1013.3 1013.1 0.0
18/06:00pm 17.2 16.0 9.4 60 4.1 NW 6 9 3 5 1013.1 1012.9 0.0
18/05:30pm 18.2 15.5 9.0 55 4.8 W 13 20 7 11 1012.7 1012.5 0.0
18/05:00pm 18.3 14.4 8.6 53 5.1 W 19 33 10 18 1012.5 1012.3 0.0
18/04:30pm 19.2 15.9 9.4 53 5.2 WNW 17 28 9 15 1012.3 1012.1 0.0
18/04:00pm 18.7 14.7 8.4 51 5.4 WNW 19 28 10 15 1012.5 1012.3 0.0
18/03:30pm 19.3 15.5 7.7 47 6.0 WNW 17 26 9 14 1012.2 1012.0 0.0
18/03:00pm 18.7 15.9 8.7 52 5.3 WNW 13 20 7 11 1012.3 1012.1 0.0
18/02:30pm 17.9 13.8 8.5 54 4.9 W 20 30 11 16 1012.5 1012.3 0.0
18/02:00pm 17.8 15.4 10.2 61 4.1 WNW 13 20 7 11 1012.9 1012.7 0.0
18/01:30pm 17.3 14.0 9.7 61 4.0 WNW 17 26 9 14 1013.2 1013.0 0.0
18/01:00pm 17.0 14.7 10.6 66 3.4 NW 13 19 7 10 1013.4 1013.2 0.0

Other Formats:

Comma delimited format used in spreadsheet applications
http://www.bom.gov.au/fwo/IDV60801/IDV60801.94855.axf

JavaScript Object Notation format (JSON) in row-major order
http://www.bom.gov.au/fwo/IDV60801/IDV60801.94855.json